createdAt,value
2023-04-16T00:01:26.836Z,13.57
2023-04-16T00:03:53.493Z,14.17
2023-04-16T00:06:20.147Z,13.23
2023-04-16T00:08:46.736Z,11.90
2023-04-16T00:11:13.262Z,11.90
2023-04-16T00:13:39.682Z,12.27
2023-04-16T00:16:06.711Z,12.27
2023-04-16T00:18:33.163Z,12.23
2023-04-16T00:20:59.650Z,13.17
2023-04-16T00:23:26.157Z,13.60
2023-04-16T00:25:53.810Z,14.93
2023-04-16T00:28:20.392Z,14.67
2023-04-16T00:30:46.920Z,12.13
2023-04-16T00:33:13.483Z,13.07
2023-04-16T00:35:40.008Z,14.23
2023-04-16T00:38:06.477Z,11.73
2023-04-16T00:40:32.982Z,14.63
2023-04-16T00:42:59.543Z,13.27
2023-04-16T00:45:26.054Z,14.17
2023-04-16T00:47:52.589Z,14.70
2023-04-16T00:50:19.355Z,15.27
2023-04-16T00:52:48.413Z,13.90
2023-04-16T00:55:17.565Z,13.27
2023-04-16T00:57:44.359Z,13.00
2023-04-16T01:00:11.630Z,14.90
2023-04-16T01:02:39.137Z,13.80
2023-04-16T01:05:06.096Z,12.93
2023-04-16T01:07:32.576Z,12.53
2023-04-16T01:09:59.386Z,15.20
2023-04-16T01:12:25.863Z,12.43
2023-04-16T01:14:52.412Z,12.97
2023-04-16T01:17:18.897Z,12.20
2023-04-16T01:19:45.700Z,14.27
2023-04-16T01:22:12.424Z,13.60
2023-04-16T01:24:39.549Z,13.93
2023-04-16T01:27:09.763Z,14.07
2023-04-16T01:29:36.218Z,14.37
2023-04-16T01:32:02.824Z,12.73
2023-04-16T01:34:32.898Z,14.47
2023-04-16T01:36:59.527Z,14.27
2023-04-16T01:39:27.211Z,16.50
2023-04-16T01:41:53.704Z,14.83
2023-04-16T01:44:20.188Z,16.17
2023-04-16T01:46:46.673Z,15.63
2023-04-16T01:49:13.691Z,15.37
2023-04-16T01:51:40.230Z,16.27
2023-04-16T01:54:06.686Z,17.20
2023-04-16T01:56:33.280Z,19.00
2023-04-16T01:58:59.714Z,19.33
2023-04-16T02:01:31.635Z,18.73
2023-04-16T02:03:58.548Z,18.83
2023-04-16T02:06:27.347Z,18.07
2023-04-16T02:08:53.851Z,19.73
2023-04-16T02:11:21.169Z,18.10
2023-04-16T02:13:48.421Z,17.00
2023-04-16T02:16:16.941Z,16.67
2023-04-16T02:18:50.676Z,17.93
2023-04-16T02:21:20.234Z,19.50
2023-04-16T02:23:51.378Z,19.53
2023-04-16T02:26:21.272Z,19.00
2023-04-16T02:28:49.084Z,17.87
2023-04-16T02:31:19.414Z,17.77
2023-04-16T02:33:46.963Z,15.87
2023-04-16T02:36:13.509Z,20.70
2023-04-16T02:38:40.034Z,18.67
2023-04-16T02:41:06.710Z,19.63
2023-04-16T02:43:33.958Z,18.37
2023-04-16T02:46:01.594Z,19.10
2023-04-16T02:48:28.129Z,17.87
2023-04-16T02:50:54.626Z,19.60
2023-04-16T02:53:21.385Z,18.93
2023-04-16T02:55:55.259Z,19.90
2023-04-16T02:58:24.642Z,18.83
2023-04-16T03:00:52.759Z,18.87
2023-04-16T03:03:19.562Z,18.20
2023-04-16T03:05:46.060Z,18.43
2023-04-16T03:08:12.812Z,17.97
2023-04-16T03:10:39.501Z,16.93
2023-04-16T03:13:05.997Z,17.37
2023-04-16T03:15:32.771Z,18.70
2023-04-16T03:17:59.928Z,18.90
2023-04-16T03:20:26.417Z,18.30
2023-04-16T03:22:53.291Z,19.17
2023-04-16T03:25:20.064Z,18.53
2023-04-16T03:27:46.665Z,21.20
2023-04-16T03:30:14.875Z,21.97
2023-04-16T03:32:41.623Z,20.70
2023-04-16T03:35:09.395Z,22.83
2023-04-16T03:37:37.162Z,22.53
2023-04-16T03:40:05.779Z,23.80
2023-04-16T03:42:32.419Z,19.53
2023-04-16T03:44:59.389Z,21.07
2023-04-16T03:47:26.221Z,23.27
2023-04-16T03:49:56.274Z,21.00
2023-04-16T03:52:22.769Z,20.00
2023-04-16T03:54:49.281Z,20.17
2023-04-16T03:57:24.634Z,20.07
2023-04-16T03:59:54.000Z,20.00
2023-04-16T04:02:21.401Z,20.50
2023-04-16T04:04:48.888Z,23.03
2023-04-16T04:07:16.448Z,21.80
2023-04-16T04:09:43.154Z,20.40
2023-04-16T04:12:10.040Z,21.77
2023-04-16T04:14:39.919Z,21.47
2023-04-16T04:17:08.481Z,19.90
2023-04-16T04:19:34.997Z,20.10
2023-04-16T04:22:01.782Z,20.80
2023-04-16T04:24:28.259Z,19.50
2023-04-16T04:26:54.817Z,22.37
2023-04-16T04:29:22.600Z,21.13
2023-04-16T04:31:49.182Z,20.73
2023-04-16T04:34:16.003Z,21.87
2023-04-16T04:36:42.487Z,19.50
2023-04-16T04:39:09.885Z,21.03
2023-04-16T04:41:36.828Z,18.40
2023-04-16T04:44:03.719Z,18.50
2023-04-16T04:46:30.351Z,17.47
2023-04-16T04:48:56.877Z,20.97
2023-04-16T04:51:23.391Z,17.03
2023-04-16T04:53:49.864Z,16.20
2023-04-16T04:56:16.329Z,17.40
2023-04-16T04:58:42.836Z,17.10
2023-04-16T05:01:09.327Z,17.30
2023-04-16T05:03:36.078Z,18.03
2023-04-16T05:06:02.644Z,18.70
2023-04-16T05:08:29.099Z,19.20
2023-04-16T05:10:55.548Z,19.67
2023-04-16T05:13:22.059Z,15.83
2023-04-16T05:15:48.600Z,19.60
2023-04-16T05:18:15.058Z,20.07
2023-04-16T05:20:41.561Z,19.23
2023-04-16T05:23:08.050Z,18.83
2023-04-16T05:25:34.698Z,18.37
2023-04-16T05:28:01.201Z,17.03
2023-04-16T05:30:27.645Z,19.43
2023-04-16T05:32:54.166Z,19.47
2023-04-16T05:35:20.676Z,20.27
2023-04-16T05:37:47.120Z,17.07
2023-04-16T05:40:14.430Z,21.13
2023-04-16T05:42:40.910Z,19.93
2023-04-16T05:45:08.013Z,19.07
2023-04-16T05:47:34.489Z,17.93
2023-04-16T05:50:00.954Z,17.73
2023-04-16T05:52:27.434Z,18.33
2023-04-16T05:54:53.858Z,18.13
2023-04-16T05:57:20.386Z,17.37
2023-04-16T05:59:46.916Z,15.40
2023-04-16T06:02:13.544Z,17.20
2023-04-16T06:04:40.132Z,17.60
2023-04-16T06:07:06.994Z,16.47
2023-04-16T06:09:33.470Z,17.63
2023-04-16T06:12:00.033Z,18.90
2023-04-16T06:14:26.491Z,19.30
2023-04-16T06:16:53.026Z,19.27
2023-04-16T06:19:19.492Z,18.40
2023-04-16T06:21:46.118Z,15.73
2023-04-16T06:24:13.308Z,17.97
2023-04-16T06:26:39.849Z,18.73
2023-04-16T06:29:06.420Z,20.20
2023-04-16T06:31:33.004Z,20.90
2023-04-16T06:33:59.554Z,20.27
2023-04-16T06:36:27.544Z,18.83
2023-04-16T06:38:54.004Z,19.50
2023-04-16T06:41:22.634Z,23.10
2023-04-16T06:43:49.307Z,21.77
2023-04-16T06:46:15.799Z,19.23
2023-04-16T06:48:42.542Z,20.70
2023-04-16T06:51:09.128Z,17.67
2023-04-16T06:53:37.488Z,22.53
2023-04-16T06:56:04.330Z,19.07
2023-04-16T06:58:30.881Z,19.73
2023-04-16T07:00:57.418Z,19.73
2023-04-16T07:03:24.040Z,18.63
2023-04-16T07:05:50.612Z,19.27
2023-04-16T07:08:17.053Z,17.23
2023-04-16T07:10:43.588Z,18.37
2023-04-16T07:13:10.132Z,19.23
2023-04-16T07:15:36.740Z,20.20
2023-04-16T07:18:03.321Z,18.03
2023-04-16T07:20:29.970Z,20.27
2023-04-16T07:22:56.723Z,18.53
2023-04-16T07:25:23.185Z,18.07
2023-04-16T07:27:49.643Z,16.23
2023-04-16T07:30:16.131Z,16.50
2023-04-16T07:32:42.687Z,17.93
2023-04-16T07:35:09.451Z,19.27
2023-04-16T07:37:35.913Z,17.63
2023-04-16T07:40:02.611Z,17.20
2023-04-16T07:42:29.095Z,17.47
2023-04-16T07:44:55.600Z,16.97
2023-04-16T07:47:23.133Z,14.40
2023-04-16T07:49:50.653Z,13.83
2023-04-16T07:52:17.122Z,17.53
2023-04-16T07:54:43.595Z,14.60
2023-04-16T07:57:11.501Z,16.27
2023-04-16T07:59:37.987Z,15.57
2023-04-16T08:02:04.922Z,16.50
2023-04-16T08:04:31.716Z,15.13
2023-04-16T08:06:58.195Z,16.60
2023-04-16T08:09:28.559Z,15.33
2023-04-16T08:11:55.313Z,15.90
2023-04-16T08:14:21.800Z,16.53
2023-04-16T08:16:48.263Z,15.70
2023-04-16T08:19:14.713Z,14.50
2023-04-16T08:21:41.316Z,14.47
2023-04-16T08:24:08.119Z,13.57
2023-04-16T08:26:34.727Z,12.93
2023-04-16T08:29:01.230Z,14.93
2023-04-16T08:31:27.796Z,15.87
2023-04-16T08:33:54.249Z,15.53
2023-04-16T08:36:21.047Z,14.03
2023-04-16T08:38:47.569Z,14.10
2023-04-16T08:41:14.963Z,16.37
2023-04-16T08:43:45.441Z,15.63
2023-04-16T08:46:12.556Z,15.07
2023-04-16T08:48:42.732Z,15.50
2023-04-16T08:51:11.018Z,15.63
2023-04-16T08:53:49.851Z,18.70
2023-04-16T08:56:21.121Z,16.90
2023-04-16T08:58:48.776Z,15.73
2023-04-16T09:01:17.999Z,15.77
2023-04-16T09:03:47.455Z,15.80
2023-04-16T09:06:15.770Z,16.90
2023-04-16T09:08:44.488Z,15.50
2023-04-16T09:11:12.042Z,17.83
2023-04-16T09:13:38.524Z,17.23
2023-04-16T09:16:07.663Z,16.40
2023-04-16T09:18:34.229Z,17.70
2023-04-16T09:21:00.992Z,17.73
2023-04-16T09:23:27.479Z,15.10
2023-04-16T09:25:54.081Z,19.53
2023-04-16T09:28:43.141Z,16.63
2023-04-16T09:31:14.296Z,14.53
2023-04-16T09:33:41.404Z,18.87
2023-04-16T09:36:08.002Z,18.27
2023-04-16T09:38:51.830Z,18.20
2023-04-16T09:41:18.998Z,19.33
2023-04-16T09:44:00.476Z,17.90
2023-04-16T09:46:30.081Z,17.70
2023-04-16T09:48:56.756Z,20.57
2023-04-16T09:51:24.775Z,16.83
2023-04-16T09:53:56.977Z,17.87
2023-04-16T09:56:27.870Z,19.17
2023-04-16T09:59:00.306Z,17.20
2023-04-16T10:01:26.782Z,19.93
2023-04-16T10:03:55.691Z,17.63
2023-04-16T10:06:23.390Z,18.87
2023-04-16T10:08:51.330Z,19.03
2023-04-16T10:11:19.133Z,18.27
2023-04-16T10:13:45.936Z,19.87
2023-04-16T10:16:12.571Z,17.50
2023-04-16T10:18:41.431Z,18.83
2023-04-16T10:21:11.564Z,21.37
2023-04-16T10:23:42.302Z,20.37
2023-04-16T10:26:09.320Z,19.90
2023-04-16T10:28:36.213Z,19.83
2023-04-16T10:31:05.613Z,17.70
2023-04-16T10:33:34.341Z,17.87
2023-04-16T10:36:12.275Z,21.03
2023-04-16T10:38:41.091Z,18.13
2023-04-16T10:41:09.413Z,20.37
2023-04-16T10:43:48.521Z,16.90
2023-04-16T10:46:18.098Z,19.00
2023-04-16T10:51:29.354Z,23.07
2023-04-16T10:54:16.775Z,21.63
2023-04-16T10:56:44.955Z,21.23
2023-04-16T10:59:11.961Z,20.10
2023-04-16T11:01:43.555Z,23.03
2023-04-16T11:04:19.305Z,20.80
2023-04-16T11:07:19.266Z,22.80
2023-04-16T11:09:59.977Z,20.57
2023-04-16T11:12:29.896Z,21.97
2023-04-16T11:15:00.494Z,18.20
2023-04-16T11:17:43.635Z,20.07
2023-04-16T11:20:19.474Z,17.37
2023-04-16T11:22:47.477Z,21.70
2023-04-16T11:25:19.975Z,19.33
2023-04-16T11:27:46.392Z,22.13
2023-04-16T11:30:13.585Z,20.33
2023-04-16T11:32:40.576Z,17.60
2023-04-16T11:35:18.259Z,16.97
2023-04-16T11:37:45.920Z,17.23
2023-04-16T11:40:12.948Z,17.37
2023-04-16T11:42:41.089Z,17.13
2023-04-16T11:45:09.722Z,18.30
2023-04-16T11:47:47.178Z,19.57
2023-04-16T11:50:31.632Z,19.10
2023-04-16T11:53:04.752Z,14.23
2023-04-16T11:55:31.268Z,15.47
2023-04-16T11:57:57.752Z,17.13
2023-04-16T12:00:24.897Z,17.13
2023-04-16T12:02:55.370Z,15.70
2023-04-16T12:05:38.569Z,17.73
2023-04-16T12:08:07.307Z,18.77
2023-04-16T12:10:35.988Z,16.50
2023-04-16T12:13:16.319Z,16.27
2023-04-16T12:15:54.036Z,16.87
2023-04-16T12:18:23.842Z,17.90
2023-04-16T12:20:53.460Z,21.33
2023-04-16T12:23:28.744Z,20.07
2023-04-16T12:25:55.967Z,20.00
2023-04-16T12:28:38.252Z,18.67
2023-04-16T12:31:05.838Z,22.73
2023-04-16T12:33:32.485Z,19.57
2023-04-16T12:35:59.092Z,19.70
2023-04-16T12:38:26.696Z,20.67
2023-04-16T12:40:56.697Z,20.17
2023-04-16T12:43:24.031Z,20.00
2023-04-16T12:45:50.659Z,21.27
2023-04-16T12:48:17.237Z,19.10
2023-04-16T12:50:44.402Z,19.00
2023-04-16T12:53:11.734Z,18.83
2023-04-16T12:55:38.323Z,18.20
2023-04-16T12:58:04.858Z,18.73
2023-04-16T13:00:31.413Z,19.73
2023-04-16T13:02:58.154Z,20.67
2023-04-16T13:05:24.731Z,20.30
2023-04-16T13:07:51.319Z,23.47
2023-04-16T13:10:18.049Z,23.57
2023-04-16T13:12:46.521Z,21.70
2023-04-16T13:15:13.091Z,22.10
2023-04-16T13:17:39.691Z,22.07
2023-04-16T13:20:06.691Z,22.90
2023-04-16T13:22:33.726Z,23.17
2023-04-16T13:25:00.411Z,27.50
2023-04-16T13:27:26.996Z,22.93
2023-04-16T13:29:53.584Z,26.80
2023-04-16T13:32:20.416Z,23.17
2023-04-16T13:34:47.219Z,20.70
2023-04-16T13:37:13.912Z,21.93
2023-04-16T13:39:40.613Z,23.83
2023-04-16T13:42:07.181Z,24.17
2023-04-16T13:44:33.833Z,26.27
2023-04-16T13:47:00.594Z,24.13
2023-04-16T13:49:27.288Z,24.83
2023-04-16T13:51:53.839Z,25.30
2023-04-16T13:54:20.546Z,24.90
2023-04-16T13:56:47.060Z,24.47
2023-04-16T13:59:15.682Z,26.17
2023-04-16T14:01:42.470Z,26.30
2023-04-16T14:04:09.127Z,27.83
2023-04-16T14:06:35.928Z,26.57
2023-04-16T14:09:02.521Z,29.90
2023-04-16T14:11:29.046Z,27.93
2023-04-16T14:13:55.827Z,31.60
2023-04-16T14:16:22.441Z,28.07
2023-04-16T14:18:49.038Z,30.00
2023-04-16T14:21:15.654Z,29.33
2023-04-16T14:23:42.127Z,26.37
2023-04-16T14:26:08.555Z,30.17
2023-04-16T14:28:35.738Z,27.70
2023-04-16T14:31:02.224Z,27.80
2023-04-16T14:33:28.732Z,27.60
2023-04-16T14:35:55.435Z,26.73
2023-04-16T14:38:21.901Z,27.93
2023-04-16T14:40:48.815Z,27.83
2023-04-16T14:43:15.345Z,25.57
2023-04-16T14:45:41.850Z,27.67
2023-04-16T14:48:08.564Z,25.23
2023-04-16T14:50:38.879Z,25.03
2023-04-16T14:53:05.663Z,26.00
2023-04-16T14:55:32.580Z,25.03
2023-04-16T14:57:59.642Z,24.80
2023-04-16T15:00:27.304Z,22.70
2023-04-16T15:02:55.100Z,22.83
2023-04-16T15:05:22.170Z,25.73
2023-04-16T15:07:48.882Z,26.37
2023-04-16T15:10:15.531Z,28.30
2023-04-16T15:12:42.091Z,26.47
2023-04-16T15:15:09.487Z,28.37
2023-04-16T15:17:36.095Z,28.83
2023-04-16T15:20:06.455Z,25.30
2023-04-16T15:22:32.882Z,26.03
2023-04-16T15:24:59.395Z,22.97
2023-04-16T15:27:26.104Z,22.67
2023-04-16T15:29:53.966Z,24.63
2023-04-16T15:32:20.601Z,23.20
2023-04-16T15:34:47.067Z,23.13
2023-04-16T15:37:13.530Z,22.13
2023-04-16T15:39:40.774Z,20.67
2023-04-16T15:42:07.946Z,19.23
2023-04-16T15:44:34.766Z,20.33
2023-04-16T15:47:01.273Z,19.30
2023-04-16T15:49:27.877Z,19.50
2023-04-16T15:51:55.444Z,21.80
2023-04-16T15:54:21.920Z,19.93
2023-04-16T15:56:48.428Z,19.67
2023-04-16T15:59:15.060Z,17.00
2023-04-16T16:01:41.564Z,18.33
2023-04-16T16:04:08.355Z,15.13
2023-04-16T16:06:35.651Z,20.17
2023-04-16T16:09:02.153Z,21.50
2023-04-16T16:11:28.656Z,17.83
2023-04-16T16:13:55.137Z,17.87
2023-04-16T16:16:21.935Z,17.87
2023-04-16T16:18:48.734Z,18.50
2023-04-16T16:21:15.297Z,16.87
2023-04-16T16:23:41.995Z,18.73
2023-04-16T16:26:09.193Z,15.73
2023-04-16T16:28:37.798Z,16.67
2023-04-16T16:31:05.970Z,16.30
2023-04-16T16:33:33.080Z,14.87
2023-04-16T16:35:59.529Z,14.40
2023-04-16T16:38:26.159Z,20.70
2023-04-16T16:40:52.733Z,23.07
2023-04-16T16:43:19.486Z,22.53
2023-04-16T16:45:46.416Z,22.80
2023-04-16T16:48:12.907Z,22.83
2023-04-16T16:50:39.436Z,23.97
2023-04-16T16:53:06.224Z,21.63
2023-04-16T16:55:32.653Z,25.53
2023-04-16T16:57:59.134Z,27.43
2023-04-16T17:00:25.751Z,23.57
2023-04-16T17:02:52.525Z,25.83
2023-04-16T17:05:19.793Z,28.03
2023-04-16T17:07:46.673Z,25.47
2023-04-16T17:10:19.934Z,26.63
2023-04-16T17:12:48.320Z,24.30
2023-04-16T17:15:15.442Z,23.47
2023-04-16T17:17:42.274Z,26.63
2023-04-16T17:20:10.677Z,22.50
2023-04-16T17:22:38.749Z,23.77
2023-04-16T17:25:07.539Z,23.63
2023-04-16T17:27:34.382Z,22.20
2023-04-16T17:30:01.799Z,21.80
2023-04-16T17:32:29.315Z,23.57
2023-04-16T17:34:56.347Z,22.83
2023-04-16T17:37:23.240Z,28.13
2023-04-16T17:39:50.150Z,26.53
2023-04-16T17:42:16.848Z,24.37
2023-04-16T17:44:43.430Z,26.40
2023-04-16T17:47:09.876Z,27.37
2023-04-16T17:49:36.404Z,27.60
2023-04-16T17:52:02.859Z,23.13
2023-04-16T17:54:29.333Z,23.03
2023-04-16T17:56:55.855Z,22.80
2023-04-16T17:59:22.313Z,25.60
2023-04-16T18:01:49.598Z,26.23
2023-04-16T18:04:16.673Z,26.57
2023-04-16T18:06:43.577Z,27.13
2023-04-16T18:09:10.264Z,28.87
2023-04-16T18:11:37.075Z,24.23
2023-04-16T18:14:03.509Z,27.07
2023-04-16T18:16:29.949Z,25.47
2023-04-16T18:18:56.580Z,23.67
2023-04-16T18:21:23.070Z,24.50
2023-04-16T18:23:49.518Z,23.07
2023-04-16T18:26:20.430Z,23.90
2023-04-16T18:28:47.553Z,25.50
2023-04-16T18:31:14.105Z,24.70
2023-04-16T18:33:55.485Z,23.33
2023-04-16T18:36:22.564Z,22.03
2023-04-16T18:39:00.002Z,23.60
2023-04-16T18:41:27.929Z,24.00
2023-04-16T18:43:54.486Z,26.97
2023-04-16T18:46:20.972Z,41.07
2023-04-16T18:48:47.459Z,50.80
2023-04-16T18:51:16.060Z,46.73
2023-04-16T18:53:44.441Z,37.33
2023-04-16T18:56:11.614Z,29.00
2023-04-16T18:58:38.210Z,25.97
2023-04-16T19:01:06.098Z,23.73
2023-04-16T19:03:33.270Z,26.27
2023-04-16T19:06:00.074Z,30.43
2023-04-16T19:08:27.077Z,27.23
2023-04-16T19:10:53.540Z,22.67
2023-04-16T19:13:20.155Z,23.70
2023-04-16T19:15:46.730Z,23.83
2023-04-16T19:18:13.239Z,21.80
2023-04-16T19:20:39.697Z,22.03
2023-04-16T19:23:08.309Z,23.43
2023-04-16T19:25:36.349Z,24.70
2023-04-16T19:28:03.733Z,22.13
2023-04-16T19:30:30.956Z,22.90
2023-04-16T19:32:57.499Z,22.93
2023-04-16T19:35:24.241Z,24.80
2023-04-16T19:37:51.071Z,23.17
2023-04-16T19:40:17.730Z,24.73
2023-04-16T19:42:45.360Z,21.90
2023-04-16T19:45:12.030Z,24.03
2023-04-16T19:47:38.668Z,20.23
2023-04-16T19:50:05.810Z,22.13
2023-04-16T19:52:37.319Z,20.93
2023-04-16T19:55:04.916Z,20.57
2023-04-16T19:57:31.400Z,23.57
2023-04-16T19:59:57.886Z,22.10
2023-04-16T20:02:24.651Z,18.60
2023-04-16T20:04:52.917Z,21.20
2023-04-16T20:07:19.981Z,20.07
2023-04-16T20:09:46.465Z,21.07
2023-04-16T20:12:12.985Z,21.40
2023-04-16T20:14:39.433Z,17.10
2023-04-16T20:17:09.736Z,21.47
2023-04-16T20:19:38.358Z,19.97
2023-04-16T20:22:06.513Z,22.27
2023-04-16T20:24:33.008Z,19.90
2023-04-16T20:26:59.724Z,21.30
2023-04-16T20:29:26.192Z,20.87
2023-04-16T20:31:52.771Z,22.57
2023-04-16T20:34:19.226Z,28.33
2023-04-16T20:36:45.796Z,41.17
2023-04-16T20:39:12.627Z,35.30
2023-04-16T20:41:44.043Z,23.97
2023-04-16T20:44:17.921Z,24.23
2023-04-16T20:46:50.772Z,20.73
2023-04-16T20:49:18.405Z,22.57
2023-04-16T20:51:44.936Z,21.67
2023-04-16T20:54:11.495Z,22.87
2023-04-16T20:56:37.940Z,20.27
2023-04-16T20:59:04.439Z,20.37
2023-04-16T21:01:31.025Z,20.83
2023-04-16T21:03:57.755Z,21.63
2023-04-16T21:06:24.456Z,21.80
2023-04-16T21:08:51.092Z,22.27
2023-04-16T21:11:17.573Z,26.50
2023-04-16T21:13:44.082Z,23.20
2023-04-16T21:16:12.389Z,28.23
2023-04-16T21:18:38.975Z,26.83
2023-04-16T21:21:05.557Z,26.13
2023-04-16T21:23:32.014Z,25.13
2023-04-16T21:25:58.493Z,26.10
2023-04-16T21:28:24.994Z,27.80
2023-04-16T21:30:52.387Z,26.97
2023-04-16T21:33:18.927Z,33.33
2023-04-16T21:35:50.865Z,31.13
2023-04-16T21:38:17.317Z,29.23
2023-04-16T21:40:45.724Z,30.27
2023-04-16T21:43:12.212Z,24.60
2023-04-16T21:45:39.692Z,23.47
2023-04-16T21:48:06.600Z,23.37
2023-04-16T21:50:33.294Z,19.63
2023-04-16T21:52:59.798Z,21.37
2023-04-16T21:55:26.260Z,17.67
2023-04-16T21:57:52.722Z,18.50
2023-04-16T22:00:19.463Z,18.83
2023-04-16T22:02:46.082Z,20.63
2023-04-16T22:05:12.719Z,19.77
2023-04-16T22:07:39.317Z,18.37
2023-04-16T22:10:06.781Z,20.20
2023-04-16T22:12:33.275Z,18.20
2023-04-16T22:15:02.731Z,16.77
2023-04-16T22:17:30.088Z,18.60
2023-04-16T22:20:00.470Z,16.03
2023-04-16T22:22:26.913Z,16.83
2023-04-16T22:24:53.489Z,17.50
2023-04-16T22:27:19.940Z,18.90
2023-04-16T22:29:46.392Z,16.23
2023-04-16T22:32:12.950Z,16.40
2023-04-16T22:34:39.399Z,16.83
2023-04-16T22:37:05.935Z,16.50
2023-04-16T22:39:32.398Z,19.27
2023-04-16T22:41:58.904Z,16.73
2023-04-16T22:44:25.543Z,18.23
2023-04-16T22:46:52.071Z,19.53
2023-04-16T22:49:18.562Z,19.40
2023-04-16T22:51:45.045Z,18.13
2023-04-16T22:54:13.669Z,19.50
2023-04-16T22:56:40.921Z,21.80
2023-04-16T22:59:07.762Z,19.57
2023-04-16T23:01:35.120Z,16.70
2023-04-16T23:04:01.872Z,17.20
2023-04-16T23:06:28.344Z,19.03
2023-04-16T23:08:54.822Z,18.10
2023-04-16T23:11:21.274Z,19.47
2023-04-16T23:13:47.834Z,19.30
2023-04-16T23:16:14.318Z,18.30
2023-04-16T23:18:40.797Z,19.50
2023-04-16T23:21:07.318Z,19.33
2023-04-16T23:23:33.776Z,16.33
2023-04-16T23:26:02.446Z,17.97
2023-04-16T23:28:28.941Z,17.63
2023-04-16T23:30:55.573Z,15.17
2023-04-16T23:33:22.146Z,17.00
2023-04-16T23:35:48.651Z,16.47
2023-04-16T23:38:15.126Z,16.23
2023-04-16T23:40:41.617Z,16.00
2023-04-16T23:43:08.052Z,16.83
2023-04-16T23:45:34.615Z,16.03
2023-04-16T23:48:01.118Z,16.63
2023-04-16T23:50:27.645Z,15.57
2023-04-16T23:52:54.158Z,17.63
2023-04-16T23:55:20.962Z,16.03
2023-04-16T23:57:47.467Z,16.27
